Accueil
METAR-TAF:

METAR-TAF

Aéroports :

Euro, Pays-Bas

Plate-forme pétrolière

latitude: 51-59-52N, longitude: 3-16-30E, altitude: 18 m

Observation

Le bulletin a été fait il y a 53 minutes, à 18:25 UTC
Vent 28 kt de sud-ouest avec des rafales jusqu'à 32 kt
Température 13°C
Humidité 88%
Pression 1007 hPa
Visibilité 10 km ou plus

METAR: EHSA 211825Z AUTO 22028G32KT 9999 ///////// 13/11 Q1007 W12/H17

Heure: 20:18 (19:18 UTC)


TAF: absent

Observations et prévisions météorologiques de plus de 4000 aéroports (messages METAR et TAF).

Les stations disponibles sont représentées par des disques jaunes et rouges sur la carte.

Passer la souris dessus pour voir le nom de la station.

Cliquer dessus pour voir les observations et prévisions météorologiques.

Pour changer de carte: cliquez sur les boutons verts avec une croix noire pour zoomer, sur le bouton vert avec un tiret pour effectuer un zoom arrière, ou sur les flèches vertes pour les cartes adjacentes.


METAR-TAF: